createdAt,value
2022-07-25T00:00:26.291Z,12.70
2022-07-25T00:02:52.973Z,12.80
2022-07-25T00:05:20.851Z,12.40
2022-07-25T00:07:48.372Z,13.10
2022-07-25T00:10:15.134Z,13.60
2022-07-25T00:12:42.672Z,13.40
2022-07-25T00:15:10.471Z,13.70
2022-07-25T00:17:37.252Z,13.20
2022-07-25T00:20:05.994Z,13.40
2022-07-25T00:22:33.236Z,12.00
2022-07-25T00:24:59.956Z,14.20
2022-07-25T00:27:27.095Z,12.60
2022-07-25T00:29:54.167Z,13.20
2022-07-25T00:32:21.003Z,13.80
2022-07-25T00:34:47.665Z,13.00
2022-07-25T00:37:14.387Z,12.80
2022-07-25T00:39:41.185Z,13.60
2022-07-25T00:42:08.146Z,13.30
2022-07-25T00:44:34.981Z,12.80
2022-07-25T00:47:02.097Z,13.60
2022-07-25T00:49:29.107Z,13.80
2022-07-25T00:51:56.107Z,13.00
2022-07-25T00:54:23.195Z,13.30
2022-07-25T00:56:50.385Z,14.10
2022-07-25T00:59:26.480Z,14.40
2022-07-25T01:01:54.189Z,17.10
2022-07-25T01:04:21.232Z,13.50
2022-07-25T01:06:48.019Z,14.50
2022-07-25T01:09:14.848Z,13.00
2022-07-25T01:11:41.642Z,13.90
2022-07-25T01:14:08.779Z,14.00
2022-07-25T01:16:36.031Z,13.90
2022-07-25T01:19:03.126Z,12.90
2022-07-25T01:21:30.287Z,14.20
2022-07-25T01:23:57.038Z,14.10
2022-07-25T01:26:23.993Z,14.50
2022-07-25T01:28:50.797Z,14.40
2022-07-25T01:31:17.878Z,13.80
2022-07-25T01:33:44.812Z,14.00
2022-07-25T01:36:11.855Z,14.20
2022-07-25T01:38:38.509Z,14.70
2022-07-25T01:41:05.485Z,14.40
2022-07-25T01:43:32.328Z,16.10
2022-07-25T01:45:59.071Z,14.20
2022-07-25T01:48:26.106Z,13.60
2022-07-25T01:50:53.428Z,15.40
2022-07-25T01:53:21.557Z,15.80
2022-07-25T01:55:48.448Z,14.90
2022-07-25T01:58:15.104Z,16.10
2022-07-25T02:00:41.947Z,13.30
2022-07-25T02:03:27.186Z,15.20
2022-07-25T02:05:54.000Z,15.00
2022-07-25T02:08:20.897Z,14.90
2022-07-25T02:10:47.839Z,15.20
2022-07-25T02:13:14.563Z,16.10
2022-07-25T02:15:41.417Z,14.40
2022-07-25T02:18:08.393Z,15.40
2022-07-25T02:20:35.421Z,15.60
2022-07-25T02:23:03.883Z,15.50
2022-07-25T02:25:31.080Z,15.10
2022-07-25T02:27:58.422Z,14.80
2022-07-25T02:30:26.120Z,14.00
2022-07-25T02:32:53.440Z,16.40
2022-07-25T02:35:20.777Z,15.30
2022-07-25T02:37:47.741Z,15.60
2022-07-25T02:40:14.552Z,13.90
2022-07-25T02:42:41.271Z,14.80
2022-07-25T02:45:08.926Z,15.40
2022-07-25T02:47:35.744Z,14.50
2022-07-25T02:50:02.458Z,14.20
2022-07-25T02:52:29.191Z,17.30
2022-07-25T02:54:55.876Z,14.70
2022-07-25T02:57:22.592Z,17.60
2022-07-25T02:59:49.233Z,17.20
2022-07-25T03:02:15.903Z,16.80
2022-07-25T03:04:42.595Z,15.00
2022-07-25T03:07:09.337Z,14.60
2022-07-25T03:09:36.043Z,16.90
2022-07-25T03:12:03.074Z,15.00
2022-07-25T03:14:29.909Z,14.20
2022-07-25T03:16:56.630Z,14.50
2022-07-25T03:19:23.428Z,14.00
2022-07-25T03:21:50.548Z,15.40
2022-07-25T03:24:18.980Z,15.20
2022-07-25T03:26:45.956Z,15.60
2022-07-25T03:29:12.873Z,14.60
2022-07-25T03:31:39.711Z,14.60
2022-07-25T03:34:07.120Z,16.90
2022-07-25T03:36:34.189Z,15.30
2022-07-25T03:39:00.940Z,15.40
2022-07-25T03:41:32.908Z,18.00
2022-07-25T03:43:59.678Z,16.90
2022-07-25T03:46:26.713Z,15.10
2022-07-25T03:48:55.156Z,16.80
2022-07-25T03:51:21.877Z,18.40
2022-07-25T03:54:04.548Z,15.70
2022-07-25T03:56:49.754Z,14.60
2022-07-25T03:59:19.574Z,15.90
2022-07-25T04:01:49.484Z,15.00
2022-07-25T04:04:16.925Z,15.00
2022-07-25T04:06:44.111Z,14.70
2022-07-25T04:09:11.844Z,15.40
2022-07-25T04:11:39.495Z,16.00
2022-07-25T04:14:07.253Z,16.40
2022-07-25T04:16:34.881Z,17.10
2022-07-25T04:19:05.330Z,15.30
2022-07-25T04:21:33.812Z,14.40
2022-07-25T04:24:00.683Z,15.40
2022-07-25T04:26:27.424Z,16.00
2022-07-25T04:28:54.236Z,16.00
2022-07-25T04:31:21.022Z,14.10
2022-07-25T04:33:47.850Z,15.10
2022-07-25T04:36:14.628Z,15.20
2022-07-25T04:38:41.336Z,15.70
2022-07-25T04:41:08.008Z,15.70
2022-07-25T04:43:34.703Z,14.80
2022-07-25T04:46:02.109Z,15.40
2022-07-25T04:48:29.201Z,14.70
2022-07-25T04:50:56.050Z,14.50
2022-07-25T04:53:23.032Z,15.20
2022-07-25T04:55:50.018Z,15.00
2022-07-25T04:58:16.721Z,15.70
2022-07-25T05:00:43.825Z,15.70
2022-07-25T05:03:11.310Z,17.80
2022-07-25T05:05:37.991Z,14.10
2022-07-25T05:08:05.353Z,13.20
2022-07-25T05:10:32.113Z,15.80
2022-07-25T05:12:59.286Z,13.70
2022-07-25T05:15:26.036Z,13.80
2022-07-25T05:17:52.776Z,14.80
2022-07-25T05:20:19.650Z,14.40
2022-07-25T05:22:46.516Z,14.90
2022-07-25T05:25:13.514Z,14.10
2022-07-25T05:27:41.256Z,14.80
2022-07-25T05:30:11.434Z,18.10
2022-07-25T05:32:39.503Z,13.70
2022-07-25T05:35:08.605Z,14.70
2022-07-25T05:37:37.459Z,12.90
2022-07-25T05:40:06.690Z,15.80
2022-07-25T05:42:33.801Z,17.60
2022-07-25T05:45:01.372Z,14.70
2022-07-25T05:47:28.172Z,16.40
2022-07-25T05:49:55.059Z,15.60
2022-07-25T05:52:21.939Z,15.90
2022-07-25T05:54:48.734Z,13.90
2022-07-25T05:57:15.529Z,15.60
2022-07-25T05:59:42.291Z,15.60
2022-07-25T06:02:09.080Z,14.50
2022-07-25T06:04:35.985Z,17.80
2022-07-25T06:07:02.762Z,16.40
2022-07-25T06:09:30.664Z,15.00
2022-07-25T06:12:00.532Z,14.00
2022-07-25T06:14:28.785Z,15.40
2022-07-25T06:16:56.617Z,12.80
2022-07-25T06:19:23.676Z,14.80
2022-07-25T06:21:50.500Z,11.20
2022-07-25T06:24:17.395Z,12.20
2022-07-25T06:26:44.698Z,16.20
2022-07-25T06:29:11.733Z,12.10
2022-07-25T06:31:38.544Z,11.20
2022-07-25T06:34:05.852Z,10.90
2022-07-25T06:36:33.146Z,11.30
2022-07-25T06:39:00.609Z,10.00
2022-07-25T06:41:27.347Z,11.60
2022-07-25T06:43:54.179Z,12.60
2022-07-25T06:46:21.103Z,12.10
2022-07-25T06:48:47.945Z,13.10
2022-07-25T06:51:14.810Z,12.70
2022-07-25T06:53:41.558Z,31.60
2022-07-25T06:56:10.539Z,14.20
2022-07-25T06:58:39.957Z,14.20
2022-07-25T07:01:07.256Z,14.50
2022-07-25T07:03:38.365Z,14.90
2022-07-25T07:06:07.352Z,16.10
2022-07-25T07:08:34.285Z,16.20
2022-07-25T07:11:01.453Z,16.90
2022-07-25T07:13:28.234Z,18.70
2022-07-25T07:15:55.959Z,17.90
2022-07-25T07:18:22.905Z,19.60
2022-07-25T07:20:49.895Z,18.70
2022-07-25T07:23:17.934Z,16.80
2022-07-25T07:25:47.228Z,19.00
2022-07-25T07:28:15.585Z,21.50
2022-07-25T07:33:30.120Z,20.80
2022-07-25T07:35:57.157Z,23.00
2022-07-25T07:38:25.509Z,24.10
2022-07-25T07:40:53.736Z,23.50
2022-07-25T07:43:20.592Z,25.60
2022-07-25T07:45:47.415Z,23.40
2022-07-25T07:48:14.120Z,28.90
2022-07-25T07:50:41.188Z,28.20
2022-07-25T07:53:08.054Z,26.70
2022-07-25T07:55:48.893Z,25.80
2022-07-25T07:58:18.521Z,25.30
2022-07-25T08:00:52.092Z,29.20
2022-07-25T08:03:21.288Z,29.30
2022-07-25T08:05:51.685Z,30.30
2022-07-25T08:08:18.836Z,33.80
2022-07-25T08:10:47.875Z,32.90
2022-07-25T08:13:30.758Z,30.70
2022-07-25T08:16:01.085Z,30.80
2022-07-25T08:18:35.296Z,28.40
2022-07-25T08:21:04.163Z,33.60
2022-07-25T08:23:32.013Z,27.10
2022-07-25T08:26:00.681Z,34.50
2022-07-25T08:28:28.257Z,35.10
2022-07-25T08:30:55.215Z,38.90
2022-07-25T08:33:22.194Z,37.10
2022-07-25T08:35:53.659Z,38.10
2022-07-25T08:38:22.649Z,40.80
2022-07-25T08:40:50.808Z,42.30
2022-07-25T08:43:19.369Z,42.70
2022-07-25T08:45:54.434Z,47.90
2022-07-25T08:48:25.064Z,38.60
2022-07-25T08:57:46.052Z,15.20
2022-07-25T09:00:18.232Z,12.70
2022-07-25T09:02:53.211Z,12.50
2022-07-25T09:05:22.624Z,12.40
2022-07-25T09:07:49.577Z,11.50
2022-07-25T09:10:20.511Z,10.30
2022-07-25T09:13:04.663Z,9.70
2022-07-25T09:15:38.208Z,10.10
2022-07-25T09:18:10.836Z,9.90
2022-07-25T09:20:47.934Z,10.10
2022-07-25T09:23:30.573Z,10.50
2022-07-25T09:26:13.039Z,10.70
2022-07-25T09:28:46.338Z,9.80
2022-07-25T09:31:15.165Z,9.80
2022-07-25T09:33:56.354Z,10.30
2022-07-25T09:36:24.095Z,10.00
2022-07-25T09:39:02.758Z,9.80
2022-07-25T09:41:38.750Z,10.20
2022-07-25T09:44:22.919Z,11.20
2022-07-25T09:46:49.987Z,10.20
2022-07-25T09:49:16.914Z,9.90
2022-07-25T09:51:44.171Z,9.80
2022-07-25T09:54:10.922Z,10.40
2022-07-25T09:56:37.848Z,9.30
2022-07-25T09:59:06.096Z,9.40
2022-07-25T10:01:41.691Z,10.50
2022-07-25T10:04:19.842Z,10.30
2022-07-25T10:07:06.622Z,10.40
2022-07-25T10:09:33.936Z,10.00
2022-07-25T10:12:12.965Z,9.90
2022-07-25T10:14:40.324Z,11.00
2022-07-25T10:17:07.842Z,9.80
2022-07-25T10:19:52.973Z,11.10
2022-07-25T10:22:39.725Z,9.80
2022-07-25T10:25:16.017Z,10.20
2022-07-25T10:27:52.912Z,9.60
2022-07-25T10:30:28.865Z,10.00
2022-07-25T10:33:12.717Z,10.20
2022-07-25T10:35:40.101Z,9.50
2022-07-25T10:38:06.899Z,9.70
2022-07-25T10:40:48.759Z,10.90
2022-07-25T10:43:20.592Z,10.20
2022-07-25T10:45:59.354Z,9.60
2022-07-25T10:48:32.297Z,9.30
2022-07-25T10:51:03.231Z,11.70
2022-07-25T10:53:43.861Z,14.80
2022-07-25T10:56:21.983Z,15.00
2022-07-25T10:59:02.203Z,16.00
2022-07-25T11:01:30.916Z,19.20
2022-07-25T11:04:01.637Z,29.20
2022-07-25T11:06:34.224Z,24.40
2022-07-25T11:09:01.444Z,19.70
2022-07-25T11:11:38.277Z,15.70
2022-07-25T11:14:06.713Z,15.50
2022-07-25T11:16:33.480Z,15.20
2022-07-25T11:19:00.272Z,15.30
2022-07-25T11:21:26.883Z,14.80
2022-07-25T11:23:53.755Z,14.00
2022-07-25T11:26:20.831Z,13.40
2022-07-25T11:28:50.395Z,12.40
2022-07-25T11:31:19.087Z,12.30
2022-07-25T11:33:49.697Z,13.70
2022-07-25T11:36:17.395Z,11.20
2022-07-25T11:38:49.312Z,13.10
2022-07-25T11:41:15.942Z,11.80
2022-07-25T11:43:49.800Z,12.00
2022-07-25T11:46:18.419Z,11.60
2022-07-25T11:48:45.307Z,10.40
2022-07-25T11:51:18.990Z,10.90
2022-07-25T11:53:50.335Z,10.30
2022-07-25T11:59:08.417Z,12.30
2022-07-25T12:01:38.879Z,13.30
2022-07-25T12:04:19.648Z,10.50
2022-07-25T12:06:49.235Z,11.80
2022-07-25T12:09:21.516Z,13.10
2022-07-25T12:11:49.514Z,11.80
2022-07-25T12:14:16.927Z,12.00
2022-07-25T12:16:43.718Z,11.90
2022-07-25T12:19:20.221Z,9.80
2022-07-25T12:21:47.094Z,11.00
2022-07-25T12:24:14.403Z,10.50
2022-07-25T12:26:41.100Z,10.20
2022-07-25T12:29:08.323Z,11.80
2022-07-25T12:31:35.421Z,10.50
2022-07-25T12:34:02.502Z,11.10
2022-07-25T12:36:29.207Z,11.10
2022-07-25T12:38:55.829Z,9.40
2022-07-25T12:41:23.650Z,10.50
2022-07-25T12:43:50.334Z,11.40
2022-07-25T12:46:17.204Z,9.90
2022-07-25T12:48:44.233Z,9.80
2022-07-25T12:51:11.038Z,10.70
2022-07-25T12:53:41.982Z,12.30
2022-07-25T12:56:09.740Z,10.70
2022-07-25T12:58:37.435Z,9.60
2022-07-25T13:01:06.329Z,9.80
2022-07-25T13:03:33.104Z,9.50
2022-07-25T13:05:59.761Z,9.40
2022-07-25T13:08:26.362Z,9.60
2022-07-25T13:10:53.096Z,9.10
2022-07-25T13:13:19.782Z,10.30
2022-07-25T13:15:46.436Z,10.30
2022-07-25T13:18:13.224Z,10.50
2022-07-25T13:20:39.931Z,10.80
2022-07-25T13:23:06.683Z,10.40
2022-07-25T13:25:34.200Z,10.20
2022-07-25T13:28:04.073Z,8.90
2022-07-25T13:30:37.969Z,10.00
2022-07-25T13:33:04.784Z,11.30
2022-07-25T13:35:38.144Z,10.20
2022-07-25T13:38:05.852Z,10.10
2022-07-25T13:40:32.930Z,11.90
2022-07-25T13:42:59.594Z,11.40
2022-07-25T13:45:26.292Z,11.00
2022-07-25T13:48:12.109Z,10.70
2022-07-25T13:50:39.679Z,11.30
2022-07-25T13:53:06.984Z,9.30
2022-07-25T13:55:33.697Z,10.60
2022-07-25T13:58:00.408Z,9.80
2022-07-25T14:00:27.080Z,11.60
2022-07-25T14:02:53.758Z,10.20
2022-07-25T14:05:20.489Z,10.10
2022-07-25T14:07:47.141Z,9.80
2022-07-25T14:10:13.787Z,9.90
2022-07-25T14:12:40.403Z,10.50
2022-07-25T14:15:08.283Z,10.20
2022-07-25T14:17:35.517Z,9.60
2022-07-25T14:20:03.260Z,9.10
2022-07-25T14:22:29.892Z,8.90
2022-07-25T14:24:56.903Z,9.70
2022-07-25T14:27:24.036Z,8.30
2022-07-25T14:29:50.798Z,9.20
2022-07-25T14:32:17.466Z,9.30
2022-07-25T14:34:44.282Z,10.80
2022-07-25T14:37:11.448Z,8.70
2022-07-25T14:39:38.957Z,9.60
2022-07-25T14:42:06.559Z,10.30
2022-07-25T14:44:33.227Z,12.30
2022-07-25T14:47:00.045Z,9.00
2022-07-25T14:49:29.051Z,9.80
2022-07-25T14:51:55.852Z,9.40
2022-07-25T14:54:22.443Z,10.00
2022-07-25T14:56:49.192Z,12.60
2022-07-25T14:59:17.113Z,10.00
2022-07-25T15:01:43.774Z,11.60
2022-07-25T15:04:10.419Z,10.80
2022-07-25T15:06:37.191Z,9.30
2022-07-25T15:09:05.287Z,9.30
2022-07-25T15:11:32.546Z,8.50
2022-07-25T15:13:59.238Z,9.00
2022-07-25T15:16:26.057Z,9.20
2022-07-25T15:19:15.070Z,9.30
2022-07-25T15:21:39.968Z,12.40
2022-07-25T15:24:06.835Z,8.30
2022-07-25T15:26:33.561Z,8.80
2022-07-25T15:29:00.363Z,8.10
2022-07-25T15:31:27.816Z,8.90
2022-07-25T15:33:54.479Z,9.10
2022-07-25T15:36:24.548Z,8.20
2022-07-25T15:38:55.623Z,7.20
2022-07-25T15:41:22.311Z,8.70
2022-07-25T15:43:48.993Z,8.50
2022-07-25T15:46:16.734Z,9.80
2022-07-25T15:48:44.854Z,10.10
2022-07-25T15:51:11.734Z,14.40
2022-07-25T15:53:38.343Z,13.20
2022-07-25T15:56:05.238Z,15.60
2022-07-25T15:58:31.952Z,13.30
2022-07-25T16:00:58.770Z,23.60
2022-07-25T16:03:25.490Z,19.90
2022-07-25T16:05:53.946Z,15.90
2022-07-25T16:08:20.565Z,12.50
2022-07-25T16:10:47.245Z,10.60
2022-07-25T16:13:14.004Z,9.30
2022-07-25T16:15:41.725Z,11.40
2022-07-25T16:18:08.375Z,11.00
2022-07-25T16:20:35.031Z,9.80
2022-07-25T16:23:02.688Z,12.60
2022-07-25T16:25:30.732Z,9.50
2022-07-25T16:27:58.815Z,8.40
2022-07-25T16:30:27.548Z,11.20
2022-07-25T16:32:54.932Z,10.70
2022-07-25T16:35:21.844Z,8.40
2022-07-25T16:37:48.551Z,10.30
2022-07-25T16:40:15.240Z,9.00
2022-07-25T16:42:42.570Z,8.00
2022-07-25T16:45:10.722Z,9.60
2022-07-25T16:47:39.573Z,7.40
2022-07-25T16:50:06.685Z,6.90
2022-07-25T16:52:33.280Z,8.70
2022-07-25T16:54:59.916Z,8.50
2022-07-25T16:57:26.597Z,7.20
2022-07-25T16:59:53.824Z,6.80
2022-07-25T17:02:25.046Z,7.20
2022-07-25T17:04:55.839Z,7.00
2022-07-25T17:07:22.518Z,7.30
2022-07-25T17:09:49.281Z,7.80
2022-07-25T17:12:17.529Z,7.80
2022-07-25T17:14:45.486Z,7.60
2022-07-25T17:17:12.841Z,10.30
2022-07-25T17:19:40.030Z,7.10
2022-07-25T17:22:08.338Z,7.00
2022-07-25T17:24:36.111Z,7.80
2022-07-25T17:27:03.047Z,7.90
2022-07-25T17:29:30.204Z,8.20
2022-07-25T17:31:57.100Z,8.90
2022-07-25T17:34:25.311Z,8.50
2022-07-25T17:36:53.272Z,8.00
2022-07-25T17:39:19.896Z,7.20
2022-07-25T17:41:46.544Z,8.30
2022-07-25T17:44:13.630Z,7.30
2022-07-25T17:46:40.807Z,7.40
2022-07-25T17:49:07.590Z,8.00
2022-07-25T17:51:34.303Z,8.40
2022-07-25T17:54:00.951Z,8.00
2022-07-25T17:56:27.683Z,9.70
2022-07-25T17:58:54.373Z,8.70
2022-07-25T18:01:21.104Z,8.80
2022-07-25T18:03:47.849Z,7.40
2022-07-25T18:06:14.914Z,7.30
2022-07-25T18:08:41.691Z,8.80
2022-07-25T18:11:08.565Z,7.90
2022-07-25T18:13:35.380Z,7.80
2022-07-25T18:16:02.673Z,7.60
2022-07-25T18:18:29.548Z,8.00
2022-07-25T18:20:56.214Z,8.30
2022-07-25T18:23:26.262Z,7.80
2022-07-25T18:25:53.716Z,8.90
2022-07-25T18:28:22.208Z,8.80
2022-07-25T18:30:52.098Z,8.20
2022-07-25T18:33:20.260Z,7.70
2022-07-25T18:35:46.990Z,7.80
2022-07-25T18:38:13.666Z,8.20
2022-07-25T18:40:40.388Z,8.30
2022-07-25T18:43:08.852Z,9.00
2022-07-25T18:45:37.716Z,8.90
2022-07-25T18:48:06.769Z,8.30
2022-07-25T18:50:33.779Z,8.10
2022-07-25T18:53:00.443Z,9.20
2022-07-25T18:55:27.233Z,7.90
2022-07-25T18:57:54.039Z,8.80
2022-07-25T19:00:20.958Z,8.40
2022-07-25T19:02:47.733Z,8.90
2022-07-25T19:05:15.043Z,8.90
2022-07-25T19:07:41.891Z,8.50
2022-07-25T19:10:10.037Z,8.70
2022-07-25T19:12:37.234Z,8.70
2022-07-25T19:15:05.729Z,9.10
2022-07-25T19:17:34.240Z,9.40
2022-07-25T19:20:01.223Z,10.10
2022-07-25T19:22:27.874Z,10.20
2022-07-25T19:24:54.511Z,9.70
2022-07-25T19:27:23.821Z,9.20
2022-07-25T19:29:50.679Z,9.80
2022-07-25T19:32:18.282Z,9.20
2022-07-25T19:34:45.166Z,12.00
2022-07-25T19:37:11.905Z,8.60
2022-07-25T19:39:38.576Z,10.10
2022-07-25T19:42:08.653Z,9.10
2022-07-25T19:44:36.921Z,9.30
2022-07-25T19:47:07.234Z,9.10
2022-07-25T19:49:36.744Z,9.30
2022-07-25T19:52:03.606Z,9.60
2022-07-25T19:54:30.211Z,10.10
2022-07-25T19:56:56.873Z,9.90
2022-07-25T19:59:23.884Z,8.60
2022-07-25T20:01:51.430Z,11.90
2022-07-25T20:04:18.266Z,13.30
2022-07-25T20:06:44.952Z,10.10
2022-07-25T20:09:11.733Z,10.90
2022-07-25T20:11:43.033Z,12.30
2022-07-25T20:14:10.956Z,10.10
2022-07-25T20:16:39.217Z,10.80
2022-07-25T20:19:09.399Z,9.80
2022-07-25T20:21:37.684Z,10.50
2022-07-25T20:24:04.847Z,14.00
2022-07-25T20:26:31.604Z,11.90
2022-07-25T20:28:58.362Z,12.10
2022-07-25T20:31:25.255Z,11.30
2022-07-25T20:33:53.126Z,8.60
2022-07-25T20:36:20.579Z,9.40
2022-07-25T20:38:47.397Z,8.30
2022-07-25T20:41:16.068Z,10.60
2022-07-25T20:43:42.968Z,9.80
2022-07-25T20:46:09.773Z,9.20
2022-07-25T20:48:37.238Z,9.80
2022-07-25T20:51:04.658Z,8.80
2022-07-25T20:53:31.341Z,10.60
2022-07-25T20:55:58.400Z,9.50
2022-07-25T20:58:25.203Z,11.70
2022-07-25T21:00:52.134Z,11.70
2022-07-25T21:03:18.924Z,10.60
2022-07-25T21:05:45.636Z,10.00
2022-07-25T21:08:12.494Z,10.50
2022-07-25T21:10:39.656Z,9.90
2022-07-25T21:13:06.446Z,8.30
2022-07-25T21:15:33.623Z,8.90
2022-07-25T21:18:00.804Z,9.40
2022-07-25T21:20:27.746Z,9.20
2022-07-25T21:22:55.381Z,9.90
2022-07-25T21:25:22.180Z,10.60
2022-07-25T21:27:48.915Z,11.60
2022-07-25T21:30:15.771Z,9.30
2022-07-25T21:32:42.526Z,8.90
2022-07-25T21:35:09.469Z,8.20
2022-07-25T21:37:36.363Z,10.70
2022-07-25T21:40:04.544Z,8.60
2022-07-25T21:42:31.239Z,9.30
2022-07-25T21:44:57.875Z,10.20
2022-07-25T21:47:24.540Z,11.10
2022-07-25T21:50:10.062Z,9.10
2022-07-25T21:52:39.977Z,9.00
2022-07-25T21:55:07.973Z,9.60
2022-07-25T21:57:34.835Z,8.90
2022-07-25T22:00:01.570Z,9.00
2022-07-25T22:02:28.264Z,10.90
2022-07-25T22:04:54.943Z,11.20
2022-07-25T22:07:22.258Z,8.10
2022-07-25T22:09:48.905Z,9.70
2022-07-25T22:12:15.603Z,9.40
2022-07-25T22:14:42.456Z,8.70
2022-07-25T22:17:09.311Z,8.40
2022-07-25T22:19:36.184Z,8.00
2022-07-25T22:22:05.549Z,7.80
2022-07-25T22:24:32.587Z,9.20
2022-07-25T22:26:59.283Z,7.30
2022-07-25T22:29:26.232Z,8.70
2022-07-25T22:31:52.938Z,8.30
2022-07-25T22:34:19.730Z,7.50
2022-07-25T22:36:46.419Z,7.70
2022-07-25T22:39:13.065Z,8.50
2022-07-25T22:41:39.780Z,9.00
2022-07-25T22:44:06.560Z,8.10
2022-07-25T22:46:34.418Z,7.40
2022-07-25T22:49:02.026Z,7.40
2022-07-25T22:51:29.764Z,7.30
2022-07-25T22:53:57.933Z,6.90
2022-07-25T22:56:26.169Z,7.70
2022-07-25T22:58:52.914Z,6.60
2022-07-25T23:01:20.548Z,7.10
2022-07-25T23:03:51.744Z,7.30
2022-07-25T23:06:20.587Z,8.00
2022-07-25T23:08:49.023Z,7.00
2022-07-25T23:11:16.559Z,8.50
2022-07-25T23:13:43.278Z,8.10
2022-07-25T23:16:10.306Z,8.30
2022-07-25T23:18:38.674Z,6.50
2022-07-25T23:21:06.178Z,8.60
2022-07-25T23:23:33.158Z,7.20
2022-07-25T23:25:59.893Z,7.30
2022-07-25T23:28:26.550Z,7.10
2022-07-25T23:30:53.229Z,7.90
2022-07-25T23:33:25.219Z,6.80
2022-07-25T23:35:53.912Z,7.70
2022-07-25T23:38:21.932Z,7.40
2022-07-25T23:40:49.413Z,7.30
2022-07-25T23:43:16.362Z,7.20
2022-07-25T23:45:53.511Z,6.80
2022-07-25T23:48:20.671Z,6.30
2022-07-25T23:50:47.291Z,7.50
2022-07-25T23:53:13.946Z,6.50
2022-07-25T23:55:40.555Z,6.80
2022-07-25T23:58:07.176Z,8.10
